createdAt,value
2022-09-28T00:01:58.962Z,53.08
2022-09-28T00:04:49.191Z,53.17
2022-09-28T00:07:38.932Z,53.17
2022-09-28T00:10:28.948Z,53.21
2022-09-28T00:13:19.221Z,53.29
2022-09-28T00:16:11.948Z,53.30
2022-09-28T00:19:03.024Z,53.34
2022-09-28T00:21:53.340Z,53.34
2022-09-28T00:24:43.090Z,53.35
2022-09-28T00:27:33.351Z,53.27
2022-09-28T00:30:23.074Z,53.23
2022-09-28T00:33:13.407Z,53.32
2022-09-28T00:36:04.339Z,53.46
2022-09-28T00:38:55.476Z,53.40
2022-09-28T00:41:46.840Z,53.37
2022-09-28T00:44:52.764Z,53.40
2022-09-28T00:47:56.420Z,53.38
2022-09-28T00:50:46.681Z,53.41
2022-09-28T00:53:41.769Z,53.47
2022-09-28T00:56:35.860Z,53.52
2022-09-28T00:59:26.844Z,53.60
2022-09-28T01:02:17.232Z,53.63
2022-09-28T01:05:10.272Z,53.62
2022-09-28T01:08:02.726Z,53.62
2022-09-28T01:10:53.127Z,53.73
2022-09-28T01:13:44.503Z,53.75
2022-09-28T01:16:42.873Z,53.78
2022-09-28T01:20:07.925Z,53.79
2022-09-28T01:23:31.983Z,53.83
2022-09-28T01:26:38.250Z,53.97
2022-09-28T01:29:46.962Z,53.96
2022-09-28T01:32:43.798Z,54.04
2022-09-28T01:35:37.977Z,54.09
2022-09-28T01:38:31.687Z,54.10
2022-09-28T01:41:24.931Z,54.02
2022-09-28T01:44:19.395Z,53.93
2022-09-28T01:47:11.688Z,54.03
2022-09-28T01:50:07.909Z,54.01
2022-09-28T01:53:02.254Z,54.08
2022-09-28T01:55:56.027Z,54.14
2022-09-28T01:58:50.769Z,54.15
2022-09-28T02:01:43.987Z,54.30
2022-09-28T02:04:39.629Z,54.26
2022-09-28T02:07:38.135Z,54.25
2022-09-28T02:10:33.432Z,54.31
2022-09-28T02:13:29.610Z,54.44
2022-09-28T02:16:24.605Z,54.39
2022-09-28T02:19:19.078Z,54.40
2022-09-28T02:22:23.469Z,54.51
2022-09-28T02:25:22.245Z,54.62
2022-09-28T02:28:14.608Z,54.61
2022-09-28T02:31:04.655Z,54.69
2022-09-28T02:33:56.319Z,54.78
2022-09-28T02:36:48.046Z,54.76
2022-09-28T02:39:38.660Z,54.81
2022-09-28T02:42:35.791Z,54.88
2022-09-28T02:45:47.269Z,55.04
2022-09-28T02:49:20.422Z,55.08
2022-09-28T02:52:25.826Z,55.11
2022-09-28T02:55:30.140Z,55.23
2022-09-28T02:58:35.409Z,55.28
2022-09-28T03:01:31.205Z,55.33
2022-09-28T03:04:37.369Z,55.40
2022-09-28T03:07:34.747Z,55.38
2022-09-28T03:10:32.931Z,55.44
2022-09-28T03:13:23.715Z,55.35
2022-09-28T03:16:15.989Z,55.40
2022-09-28T03:19:06.776Z,55.43
2022-09-28T03:21:57.001Z,55.52
2022-09-28T03:24:46.822Z,55.50
2022-09-28T03:27:37.346Z,55.56
2022-09-28T03:30:27.920Z,55.60
2022-09-28T03:33:19.721Z,55.65
2022-09-28T03:36:10.987Z,55.56
2022-09-28T03:39:01.059Z,55.62
2022-09-28T03:41:51.035Z,55.70
2022-09-28T03:44:41.666Z,55.66
2022-09-28T03:47:31.507Z,55.64
2022-09-28T03:50:22.001Z,55.70
2022-09-28T03:53:11.874Z,55.75
2022-09-28T03:56:06.007Z,55.89
2022-09-28T03:58:55.979Z,55.88
2022-09-28T04:01:46.599Z,55.95
2022-09-28T04:04:36.965Z,56.03
2022-09-28T04:07:30.908Z,56.02
2022-09-28T04:10:22.073Z,56.13
2022-09-28T04:13:12.472Z,56.22
2022-09-28T04:16:05.106Z,56.20
2022-09-28T04:18:57.210Z,56.16
2022-09-28T04:21:55.990Z,56.26
2022-09-28T04:24:46.645Z,56.30
2022-09-28T04:27:54.589Z,56.36
2022-09-28T04:30:44.404Z,56.34
2022-09-28T04:33:34.609Z,56.32
2022-09-28T04:36:25.331Z,56.34
2022-09-28T04:39:17.101Z,56.33
2022-09-28T04:42:12.965Z,56.34
2022-09-28T04:45:05.042Z,56.40
2022-09-28T04:47:59.263Z,56.50
2022-09-28T04:51:13.337Z,56.59
2022-09-28T04:54:03.486Z,56.62
2022-09-28T04:56:55.527Z,56.62
2022-09-28T04:59:45.770Z,56.69
2022-09-28T05:02:35.854Z,56.81
2022-09-28T05:05:49.120Z,56.83
2022-09-28T05:08:59.848Z,56.82
2022-09-28T05:11:53.099Z,56.92
2022-09-28T05:14:45.722Z,56.92
2022-09-28T05:17:35.543Z,56.59
2022-09-28T05:20:58.134Z,56.39
2022-09-28T05:23:50.549Z,56.28
2022-09-28T05:26:40.864Z,56.16
2022-09-28T05:29:33.004Z,56.01
2022-09-28T05:32:44.543Z,55.94
2022-09-28T05:35:42.263Z,55.89
2022-09-28T05:38:32.383Z,55.90
2022-09-28T05:41:22.396Z,55.79
2022-09-28T05:44:13.131Z,55.63
2022-09-28T05:47:03.123Z,55.55
2022-09-28T05:49:53.105Z,55.35
2022-09-28T05:52:43.327Z,55.30
2022-09-28T05:55:33.876Z,55.29
2022-09-28T05:58:24.111Z,55.29
2022-09-28T06:01:14.499Z,55.19
2022-09-28T06:04:05.155Z,55.19
2022-09-28T06:06:55.208Z,55.18
2022-09-28T06:09:45.762Z,55.14
2022-09-28T06:12:52.921Z,55.15
2022-09-28T06:15:44.974Z,55.05
2022-09-28T06:18:35.457Z,55.13
2022-09-28T06:21:48.747Z,55.21
2022-09-28T06:24:38.544Z,55.31
2022-09-28T06:27:28.569Z,55.26
2022-09-28T06:30:18.961Z,55.19
2022-09-28T06:33:12.713Z,55.31
2022-09-28T06:36:03.462Z,55.29
2022-09-28T06:38:54.179Z,55.28
2022-09-28T06:41:44.742Z,55.31
2022-09-28T06:44:40.322Z,55.36
2022-09-28T06:47:47.474Z,55.41
2022-09-28T06:50:47.600Z,55.28
2022-09-28T06:53:56.697Z,55.30
2022-09-28T06:57:15.985Z,55.29
2022-09-28T07:00:08.007Z,55.35
2022-09-28T07:02:58.493Z,55.20
2022-09-28T07:06:11.419Z,55.03
2022-09-28T07:09:42.671Z,55.02
2022-09-28T07:12:55.282Z,55.08
2022-09-28T07:16:04.728Z,55.11
2022-09-28T07:18:54.714Z,54.99
2022-09-28T07:21:58.635Z,54.98
2022-09-28T07:24:52.392Z,54.96
2022-09-28T07:28:01.369Z,54.91
2022-09-28T07:30:57.870Z,54.81
2022-09-28T07:34:08.860Z,54.84
2022-09-28T07:37:19.042Z,54.85
2022-09-28T07:40:30.218Z,54.80
2022-09-28T07:43:22.603Z,54.96
2022-09-28T07:46:14.898Z,55.09
2022-09-28T07:49:13.044Z,55.10
2022-09-28T07:52:17.261Z,55.16
2022-09-28T07:55:28.468Z,55.31
2022-09-28T07:58:49.923Z,55.30
2022-09-28T08:01:59.061Z,55.26
2022-09-28T08:04:49.590Z,55.09
2022-09-28T08:07:39.671Z,55.10
2022-09-28T08:10:32.150Z,54.99
2022-09-28T08:13:44.151Z,54.77
2022-09-28T08:16:57.286Z,54.75
2022-09-28T08:20:34.218Z,54.51
2022-09-28T08:23:24.728Z,54.59
2022-09-28T08:26:16.351Z,54.71
2022-09-28T08:29:08.504Z,54.46
2022-09-28T08:32:14.965Z,54.59
2022-09-28T08:35:34.192Z,54.52
2022-09-28T08:38:36.053Z,54.34
2022-09-28T08:41:56.513Z,54.52
2022-09-28T08:45:16.191Z,54.27
2022-09-28T08:49:06.586Z,54.29
2022-09-28T08:52:25.354Z,54.17
2022-09-28T08:55:27.579Z,54.11
2022-09-28T08:58:22.532Z,53.99
2022-09-28T09:01:18.989Z,54.03
2022-09-28T09:04:10.237Z,54.05
2022-09-28T09:07:44.067Z,53.82
2022-09-28T09:10:51.661Z,53.66
2022-09-28T09:14:15.589Z,53.60
2022-09-28T09:17:16.401Z,53.47
2022-09-28T09:20:40.628Z,53.47
2022-09-28T09:23:57.214Z,52.84
2022-09-28T09:26:51.332Z,52.08
2022-09-28T09:30:03.872Z,51.63
2022-09-28T09:33:08.523Z,51.14
2022-09-28T09:36:30.732Z,50.69
2022-09-28T09:39:59.941Z,50.46
2022-09-28T09:43:42.155Z,50.32
2022-09-28T09:47:08.644Z,49.81
2022-09-28T09:50:15.292Z,49.74
2022-09-28T09:53:15.137Z,49.66
2022-09-28T09:56:14.585Z,49.59
2022-09-28T09:59:33.646Z,49.36
2022-09-28T10:02:30.116Z,49.39
2022-09-28T10:05:31.878Z,49.33
2022-09-28T10:08:25.114Z,49.38
2022-09-28T10:11:18.550Z,49.41
2022-09-28T10:14:17.289Z,49.38
2022-09-28T10:17:16.359Z,49.54
2022-09-28T10:20:25.696Z,49.40
2022-09-28T10:23:26.336Z,49.49
2022-09-28T10:26:25.048Z,49.43
2022-09-28T10:29:21.078Z,49.29
2022-09-28T10:32:23.982Z,49.36
2022-09-28T10:35:26.296Z,49.09
2022-09-28T10:38:24.824Z,49.00
2022-09-28T10:41:19.277Z,48.85
2022-09-28T10:44:25.249Z,48.81
2022-09-28T10:47:33.816Z,48.89
2022-09-28T10:50:31.306Z,48.82
2022-09-28T10:53:36.286Z,48.72
2022-09-28T10:56:30.342Z,48.63
2022-09-28T10:59:40.359Z,48.51
2022-09-28T11:02:50.626Z,48.57
2022-09-28T11:05:44.116Z,48.20
2022-09-28T11:08:38.427Z,48.14
2022-09-28T11:11:31.512Z,47.96
2022-09-28T11:14:39.617Z,47.98
2022-09-28T11:17:38.751Z,47.71
2022-09-28T11:20:36.695Z,47.58
2022-09-28T11:23:31.946Z,47.36
2022-09-28T11:26:35.761Z,47.53
2022-09-28T11:29:32.377Z,47.43
2022-09-28T11:32:46.526Z,47.01
2022-09-28T11:35:51.804Z,46.80
2022-09-28T11:38:55.431Z,46.61
2022-09-28T11:42:23.793Z,46.44
2022-09-28T11:45:35.403Z,46.26
2022-09-28T11:48:31.981Z,46.16
2022-09-28T11:51:29.273Z,46.26
2022-09-28T11:54:29.047Z,46.24
2022-09-28T11:57:26.441Z,46.16
2022-09-28T12:00:21.951Z,46.05
2022-09-28T12:03:18.408Z,46.04
2022-09-28T12:06:16.367Z,46.09
2022-09-28T12:09:16.052Z,46.06
2022-09-28T12:12:26.654Z,45.74
2022-09-28T12:15:24.357Z,45.58
2022-09-28T12:18:21.409Z,45.60
2022-09-28T12:21:35.040Z,45.59
2022-09-28T12:24:28.928Z,45.43
2022-09-28T12:27:22.697Z,45.37
2022-09-28T12:30:20.080Z,45.21
2022-09-28T12:33:13.257Z,45.12
2022-09-28T12:36:17.829Z,44.99
2022-09-28T12:39:27.481Z,44.85
2022-09-28T12:42:45.782Z,44.84
2022-09-28T12:46:10.337Z,44.98
2022-09-28T12:52:50.455Z,44.99
2022-09-28T12:55:56.591Z,45.12
2022-09-28T12:59:01.473Z,44.93
2022-09-28T13:02:24.950Z,44.82
2022-09-28T13:05:57.603Z,44.82
2022-09-28T13:09:02.715Z,44.89
2022-09-28T13:12:29.365Z,44.89
2022-09-28T13:15:44.900Z,44.75
2022-09-28T13:18:42.312Z,44.64
2022-09-28T13:21:41.389Z,44.55
2022-09-28T13:24:37.907Z,44.54
2022-09-28T13:27:31.266Z,44.53
2022-09-28T13:30:21.718Z,44.43
2022-09-28T13:33:19.975Z,44.44
2022-09-28T13:36:47.178Z,44.76
2022-09-28T13:39:56.557Z,44.34
2022-09-28T13:43:04.812Z,43.79
2022-09-28T13:46:03.288Z,43.57
2022-09-28T13:49:06.593Z,43.61
2022-09-28T13:52:06.342Z,43.89
2022-09-28T13:55:33.004Z,44.14
2022-09-28T13:58:27.580Z,44.25
2022-09-28T14:01:22.687Z,44.18
2022-09-28T14:04:20.061Z,44.18
2022-09-28T14:07:17.701Z,44.15
2022-09-28T14:10:24.654Z,44.02
2022-09-28T14:13:34.706Z,44.14
2022-09-28T14:16:26.838Z,44.30
2022-09-28T14:19:23.145Z,44.29
2022-09-28T14:22:22.433Z,44.28
2022-09-28T14:25:19.205Z,44.44
2022-09-28T14:28:28.563Z,44.43
2022-09-28T14:31:26.268Z,44.52
2022-09-28T14:34:32.607Z,44.55
2022-09-28T14:37:45.516Z,44.59
2022-09-28T14:41:14.406Z,44.60
2022-09-28T14:44:10.611Z,44.64
2022-09-28T14:47:35.329Z,44.72
2022-09-28T14:50:27.962Z,44.79
2022-09-28T14:53:24.110Z,45.10
2022-09-28T14:56:15.683Z,45.19
2022-09-28T14:59:06.548Z,45.24
2022-09-28T15:02:01.111Z,45.22
2022-09-28T15:04:53.690Z,45.18
2022-09-28T15:07:49.699Z,45.15
2022-09-28T15:10:46.254Z,45.35
2022-09-28T15:13:36.742Z,45.19
2022-09-28T15:16:27.347Z,45.19
2022-09-28T15:19:29.721Z,45.38
2022-09-28T15:22:21.474Z,45.53
2022-09-28T15:25:16.861Z,45.72
2022-09-28T15:28:19.359Z,45.89
2022-09-28T15:31:18.564Z,45.99
2022-09-28T15:34:30.775Z,45.83
2022-09-28T15:37:24.120Z,45.82
2022-09-28T15:40:19.421Z,45.69
2022-09-28T15:43:27.386Z,45.40
2022-09-28T15:46:21.897Z,45.62
2022-09-28T15:49:26.602Z,45.77
2022-09-28T15:52:31.563Z,45.93
2022-09-28T15:55:26.718Z,46.07
2022-09-28T15:58:20.909Z,45.77
2022-09-28T16:01:37.086Z,45.94
2022-09-28T16:04:40.210Z,46.15
2022-09-28T16:07:35.226Z,46.43
2022-09-28T16:10:35.094Z,46.67
2022-09-28T16:13:25.364Z,46.66
2022-09-28T16:16:18.089Z,46.71
2022-09-28T16:19:23.757Z,46.72
2022-09-28T16:22:28.588Z,46.81
2022-09-28T16:25:23.981Z,47.02
2022-09-28T16:28:32.409Z,47.09
2022-09-28T16:31:39.051Z,47.38
2022-09-28T16:34:31.897Z,47.51
2022-09-28T16:37:34.689Z,47.66
2022-09-28T16:40:26.356Z,47.78
2022-09-28T16:43:27.468Z,47.83
2022-09-28T16:46:21.696Z,47.92
2022-09-28T16:49:19.849Z,48.04
2022-09-28T16:52:35.239Z,47.94
2022-09-28T16:55:41.451Z,48.03
2022-09-28T16:58:33.331Z,48.12
2022-09-28T17:01:24.805Z,48.20
2022-09-28T17:04:14.783Z,48.22
2022-09-28T17:07:05.544Z,48.38
2022-09-28T17:09:55.423Z,48.62
2022-09-28T17:12:45.624Z,48.58
2022-09-28T17:15:35.977Z,48.67
2022-09-28T17:18:26.619Z,48.95
2022-09-28T17:21:21.107Z,48.91
2022-09-28T17:24:11.553Z,49.12
2022-09-28T17:27:03.306Z,49.95
2022-09-28T17:29:53.574Z,49.51
2022-09-28T17:32:45.802Z,49.23
2022-09-28T17:35:39.775Z,49.20
2022-09-28T17:38:32.307Z,48.81
2022-09-28T17:41:23.202Z,48.74
2022-09-28T17:44:22.186Z,48.88
2022-09-28T17:47:17.922Z,48.87
2022-09-28T17:50:21.450Z,48.92
2022-09-28T17:53:20.575Z,49.06
2022-09-28T17:56:12.211Z,49.10
2022-09-28T17:59:05.008Z,49.20
2022-09-28T18:01:59.398Z,49.20
2022-09-28T18:04:53.266Z,49.44
2022-09-28T18:07:50.134Z,49.40
2022-09-28T18:10:43.641Z,49.64
2022-09-28T18:13:36.031Z,49.66
2022-09-28T18:16:28.781Z,49.71
2022-09-28T18:19:21.097Z,49.53
2022-09-28T18:22:11.727Z,49.43
2022-09-28T18:25:05.509Z,49.50
2022-09-28T18:27:59.435Z,49.46
2022-09-28T18:30:56.814Z,49.40
2022-09-28T18:33:49.747Z,49.40
2022-09-28T18:36:44.622Z,49.49
2022-09-28T18:39:40.993Z,49.49
2022-09-28T18:42:36.304Z,49.47
2022-09-28T18:45:33.250Z,49.51
2022-09-28T18:48:33.408Z,49.51
2022-09-28T18:51:28.838Z,49.41
2022-09-28T18:54:32.207Z,49.45
2022-09-28T18:57:26.707Z,49.42
2022-09-28T19:00:22.394Z,49.47
2022-09-28T19:03:20.843Z,49.55
2022-09-28T19:06:19.449Z,49.68
2022-09-28T19:09:12.478Z,49.66
2022-09-28T19:12:05.737Z,49.56
2022-09-28T19:15:01.696Z,49.74
2022-09-28T19:17:55.823Z,49.61
2022-09-28T19:20:45.967Z,49.66
2022-09-28T19:23:38.975Z,49.58
2022-09-28T19:26:36.565Z,49.64
2022-09-28T19:29:32.109Z,49.73
2022-09-28T19:32:22.976Z,49.86
2022-09-28T19:35:15.906Z,49.89
2022-09-28T19:38:08.819Z,49.85
2022-09-28T19:41:11.230Z,49.81
2022-09-28T19:44:08.598Z,49.86
2022-09-28T19:47:06.768Z,49.76
2022-09-28T19:49:59.087Z,49.81
2022-09-28T19:52:57.691Z,49.82
2022-09-28T19:55:54.696Z,49.84
2022-09-28T19:58:48.654Z,49.78
2022-09-28T20:01:40.003Z,49.85
2022-09-28T20:04:34.474Z,49.90
2022-09-28T20:07:28.248Z,49.83
2022-09-28T20:10:19.628Z,49.84
2022-09-28T20:13:09.639Z,50.06
2022-09-28T20:16:03.512Z,50.06
2022-09-28T20:18:57.422Z,50.17
2022-09-28T20:21:54.549Z,50.19
2022-09-28T20:24:55.735Z,50.19
2022-09-28T20:27:48.672Z,50.26
2022-09-28T20:30:42.114Z,50.28
2022-09-28T20:33:36.882Z,50.35
2022-09-28T20:36:34.201Z,50.53
2022-09-28T20:39:25.950Z,50.59
2022-09-28T20:42:17.329Z,50.66
2022-09-28T20:45:12.999Z,50.56
2022-09-28T20:48:09.052Z,50.65
2022-09-28T20:51:03.946Z,50.58
2022-09-28T20:54:01.955Z,50.57
2022-09-28T20:56:58.121Z,50.57
2022-09-28T20:59:55.272Z,50.45
2022-09-28T21:02:50.063Z,50.21
2022-09-28T21:05:42.397Z,50.05
2022-09-28T21:08:32.461Z,49.91
2022-09-28T21:11:28.279Z,49.96
2022-09-28T21:14:18.887Z,49.89
2022-09-28T21:17:11.419Z,50.00
2022-09-28T21:20:07.127Z,50.06
2022-09-28T21:23:03.999Z,50.11
2022-09-28T21:26:10.766Z,50.10
2022-09-28T21:29:08.747Z,50.11
2022-09-28T21:32:01.502Z,50.21
2022-09-28T21:34:57.560Z,50.18
2022-09-28T21:37:51.981Z,50.07
2022-09-28T21:40:44.101Z,50.08
2022-09-28T21:43:34.699Z,50.02
2022-09-28T21:46:34.386Z,50.07
2022-09-28T21:49:27.057Z,49.99
2022-09-28T21:52:18.192Z,49.89
2022-09-28T21:55:12.213Z,49.96
2022-09-28T21:58:03.151Z,50.01
2022-09-28T22:01:03.107Z,50.07
2022-09-28T22:03:55.481Z,50.07
2022-09-28T22:06:45.188Z,49.93
2022-09-28T22:09:37.839Z,49.76
2022-09-28T22:12:29.339Z,49.63
2022-09-28T22:15:20.159Z,49.59
2022-09-28T22:18:10.234Z,49.66
2022-09-28T22:21:06.572Z,49.62
2022-09-28T22:24:02.046Z,49.60
2022-09-28T22:26:52.027Z,49.71
2022-09-28T22:29:42.577Z,49.72
2022-09-28T22:32:32.738Z,49.71
2022-09-28T22:35:22.702Z,49.70
2022-09-28T22:38:13.500Z,49.68
2022-09-28T22:41:04.112Z,49.66
2022-09-28T22:43:56.213Z,49.60
2022-09-28T22:46:46.289Z,49.58
2022-09-28T22:49:36.664Z,49.63
2022-09-28T22:52:27.158Z,49.94
2022-09-28T22:55:17.414Z,50.20
2022-09-28T22:58:07.230Z,50.07
2022-09-28T23:00:57.940Z,50.00
2022-09-28T23:03:49.068Z,49.88
2022-09-28T23:06:39.175Z,49.68
2022-09-28T23:09:29.275Z,49.67
2022-09-28T23:12:19.638Z,49.70
2022-09-28T23:15:12.319Z,49.65
2022-09-28T23:18:02.107Z,49.64
2022-09-28T23:20:57.243Z,49.68
2022-09-28T23:23:47.889Z,49.79
2022-09-28T23:26:37.996Z,49.91
2022-09-28T23:29:28.119Z,50.12
2022-09-28T23:32:18.516Z,50.30
2022-09-28T23:35:10.360Z,50.30
2022-09-28T23:38:00.252Z,50.48
2022-09-28T23:40:50.540Z,50.42
2022-09-28T23:43:40.523Z,50.33
2022-09-28T23:46:30.666Z,50.42
2022-09-28T23:49:20.637Z,50.55
2022-09-28T23:52:10.638Z,50.47
2022-09-28T23:55:00.539Z,50.59
2022-09-28T23:57:50.817Z,50.75
